createdAt,value
2022-08-20T00:02:50.350Z,95591.81
2022-08-20T00:06:40.158Z,95583.02
2022-08-20T00:10:07.657Z,95584.41
2022-08-20T00:13:54.057Z,95587.59
2022-08-20T00:17:40.650Z,95589.75
2022-08-20T00:21:27.314Z,95587.98
2022-08-20T00:24:57.086Z,95589.23
2022-08-20T00:28:43.710Z,95588.58
2022-08-20T00:32:30.024Z,95589.11
2022-08-20T00:36:16.910Z,95588.34
2022-08-20T00:39:49.284Z,95583.46
2022-08-20T00:43:45.255Z,95579.59
2022-08-20T00:47:31.614Z,95581.67
2022-08-20T00:50:40.533Z,95578.06
2022-08-20T00:54:27.220Z,95568.63
2022-08-20T00:57:25.709Z,95561.95
2022-08-20T01:01:12.418Z,95557.21
2022-08-20T01:04:59.672Z,95559.11
2022-08-20T01:08:46.640Z,95558.84
2022-08-20T01:12:33.554Z,95561.00
2022-08-20T01:16:19.928Z,95566.61
2022-08-20T01:19:49.324Z,95564.33
2022-08-20T01:23:31.070Z,95555.45
2022-08-20T01:27:18.544Z,95546.23
2022-08-20T01:31:05.613Z,95542.33
2022-08-20T01:34:34.757Z,95541.09
2022-08-20T01:38:21.797Z,95543.01
2022-08-20T01:42:17.913Z,95544.06
2022-08-20T01:46:04.886Z,95541.56
2022-08-20T01:49:53.785Z,95539.02
2022-08-20T01:54:04.880Z,95536.73
2022-08-20T01:57:46.659Z,95540.99
2022-08-20T02:05:56.841Z,95544.55
2022-08-20T02:09:43.775Z,95554.05
2022-08-20T02:13:26.827Z,95554.77
2022-08-20T02:16:57.485Z,95546.92
2022-08-20T02:20:47.185Z,95538.70
2022-08-20T02:24:14.022Z,95529.60
2022-08-20T02:27:32.497Z,95523.80
2022-08-20T02:31:19.027Z,95526.21
2022-08-20T02:34:45.813Z,95519.46
2022-08-20T02:38:23.664Z,95514.40
2022-08-20T02:41:54.670Z,95510.40
2022-08-20T02:45:41.531Z,95505.23
2022-08-20T02:49:08.331Z,95499.99
2022-08-20T02:52:42.602Z,95499.25
2022-08-20T02:56:38.709Z,95500.33
2022-08-20T03:00:06.116Z,95502.25
2022-08-20T03:03:53.028Z,95512.02
2022-08-20T03:07:35.441Z,95520.61
2022-08-20T03:11:08.490Z,95527.66
2022-08-20T03:14:54.799Z,95525.24
2022-08-20T03:18:41.107Z,95512.18
2022-08-20T03:21:50.030Z,95505.45
2022-08-20T03:25:16.890Z,95510.55
2022-08-20T03:28:47.414Z,95514.23
2022-08-20T03:32:17.237Z,95516.27
2022-08-20T03:36:04.219Z,95520.95
2022-08-20T03:39:32.038Z,95519.19
2022-08-20T03:42:41.667Z,95514.69
2022-08-20T03:46:28.000Z,95510.77
2022-08-20T03:49:39.577Z,95508.97
2022-08-20T03:52:08.384Z,95510.20
2022-08-20T03:55:17.259Z,95512.14
2022-08-20T03:58:43.850Z,95513.81
2022-08-20T04:02:11.728Z,95511.77
2022-08-20T04:05:54.378Z,95511.80
2022-08-20T04:09:41.005Z,95507.04
2022-08-20T04:13:28.182Z,95508.94
2022-08-20T04:17:16.316Z,95511.33
2022-08-20T04:21:03.506Z,95510.98
2022-08-20T04:24:29.214Z,95511.63
2022-08-20T04:28:17.236Z,95507.99
2022-08-20T04:31:44.476Z,95502.14
2022-08-20T04:35:15.189Z,95506.33
2022-08-20T04:38:49.622Z,95508.80
2022-08-20T04:42:34.268Z,95508.73
2022-08-20T04:46:20.944Z,95518.72
2022-08-20T04:50:07.498Z,95526.09
2022-08-20T04:53:37.169Z,95530.00
2022-08-20T04:57:02.035Z,95523.15
2022-08-20T05:00:28.799Z,95515.48
2022-08-20T05:03:44.373Z,95513.64
2022-08-20T05:07:31.019Z,95510.34
2022-08-20T05:11:24.134Z,95502.48
2022-08-20T05:14:57.102Z,95501.25
2022-08-20T05:18:05.506Z,95501.61
2022-08-20T05:21:27.307Z,95507.11
2022-08-20T05:24:41.658Z,95508.03
2022-08-20T05:28:24.116Z,95505.13
2022-08-20T05:32:10.381Z,95513.39
2022-08-20T05:35:37.798Z,95516.10
2022-08-20T05:38:49.757Z,95519.33
2022-08-20T05:42:21.036Z,95524.80
2022-08-20T05:45:45.956Z,95523.80
2022-08-20T05:49:32.240Z,95520.55
2022-08-20T05:52:59.988Z,95522.42
2022-08-20T05:56:26.852Z,95523.23
2022-08-20T05:59:40.164Z,95516.77
2022-08-20T06:03:01.789Z,95513.60
2022-08-20T06:06:45.879Z,95508.48
2022-08-20T06:10:14.853Z,95506.82
2022-08-20T06:13:41.905Z,95505.19
2022-08-20T06:17:28.503Z,95498.84
2022-08-20T06:21:06.568Z,95496.24
2022-08-20T06:24:53.495Z,95497.43
2022-08-20T06:28:40.059Z,95499.66
2022-08-20T06:32:31.893Z,95497.92
2022-08-20T06:36:07.638Z,95491.91
2022-08-20T06:39:26.657Z,95487.95
2022-08-20T06:43:01.835Z,95487.87
2022-08-20T06:46:29.417Z,95482.95
2022-08-20T06:50:15.673Z,95484.84
2022-08-20T06:54:04.567Z,95482.11
2022-08-20T06:57:51.815Z,95485.73
2022-08-20T07:01:09.257Z,95485.52
2022-08-20T07:04:57.608Z,95485.92
2022-08-20T07:08:46.901Z,95480.92
2022-08-20T07:12:03.831Z,95476.95
2022-08-20T07:15:30.550Z,95474.46
2022-08-20T07:18:59.290Z,95476.33
2022-08-20T07:22:27.231Z,95473.14
2022-08-20T07:26:14.734Z,95471.78
2022-08-20T07:30:00.064Z,95479.46
2022-08-20T07:33:28.301Z,95485.77
2022-08-20T07:37:14.867Z,95485.02
2022-08-20T07:41:04.137Z,95488.94
2022-08-20T07:44:49.250Z,95488.41
2022-08-20T07:48:36.522Z,95495.02
2022-08-20T07:52:04.068Z,95498.11
2022-08-20T07:55:58.988Z,95500.97
2022-08-20T07:59:46.897Z,95502.90
2022-08-20T08:03:21.102Z,95500.52
2022-08-20T08:07:27.440Z,95497.65
2022-08-20T08:11:14.677Z,95495.66
2022-08-20T08:15:01.882Z,95489.61
2022-08-20T08:18:13.090Z,95489.09
2022-08-20T08:21:23.834Z,95492.04
2022-08-20T08:24:57.192Z,95492.42
2022-08-20T08:28:32.460Z,95488.39
2022-08-20T08:32:21.628Z,95488.23
2022-08-20T08:35:53.770Z,95485.92
2022-08-20T08:39:40.212Z,95481.03
2022-08-20T08:43:21.225Z,95482.86
2022-08-20T08:47:08.376Z,95483.17
2022-08-20T08:51:00.719Z,95480.23
2022-08-20T08:54:52.625Z,95476.27
2022-08-20T08:58:27.233Z,95478.88
2022-08-20T09:02:20.746Z,95486.21
2022-08-20T09:06:16.336Z,95483.98
2022-08-20T09:09:50.518Z,95480.01
2022-08-20T09:13:21.373Z,95476.95
2022-08-20T09:16:52.729Z,95473.02
2022-08-20T09:20:39.959Z,95468.98
2022-08-20T09:24:26.572Z,95467.31
2022-08-20T09:28:13.173Z,95461.63
2022-08-20T09:32:01.042Z,95455.96
2022-08-20T09:35:49.135Z,95446.66
2022-08-20T09:39:36.432Z,95441.73
2022-08-20T09:43:23.603Z,95440.23
2022-08-20T09:47:10.513Z,95442.04
2022-08-20T09:50:57.851Z,95448.20
2022-08-20T09:54:46.631Z,95449.57
2022-08-20T09:58:34.410Z,95446.52
2022-08-20T10:02:21.875Z,95445.59
2022-08-20T10:06:09.472Z,95444.63
2022-08-20T10:09:56.357Z,95444.99
2022-08-20T10:13:43.888Z,95444.42
2022-08-20T10:17:33.932Z,95443.34
2022-08-20T10:21:21.444Z,95436.24
2022-08-20T10:25:08.662Z,95430.13
2022-08-20T10:28:56.225Z,95424.02
2022-08-20T10:32:45.684Z,95420.92
2022-08-20T10:36:33.228Z,95422.98
2022-08-20T10:40:20.831Z,95423.23
2022-08-20T10:44:08.172Z,95420.40
2022-08-20T10:47:55.997Z,95419.36
2022-08-20T10:51:43.614Z,95418.66
2022-08-20T10:55:31.205Z,95415.20
2022-08-20T10:59:18.799Z,95413.20
2022-08-20T11:03:05.967Z,95408.78
2022-08-20T11:06:53.708Z,95400.27
2022-08-20T11:10:40.856Z,95396.58
2022-08-20T11:14:28.316Z,95388.14
2022-08-20T11:18:18.834Z,95378.10
2022-08-20T11:22:06.309Z,95373.91
2022-08-20T11:25:53.896Z,95375.41
2022-08-20T11:29:41.525Z,95370.65
2022-08-20T11:33:31.093Z,95364.46
2022-08-20T11:37:21.235Z,95361.83
2022-08-20T11:41:08.968Z,95353.95
2022-08-20T11:44:56.187Z,95346.19
2022-08-20T11:48:43.748Z,95343.23
2022-08-20T11:52:31.243Z,95340.11
2022-08-20T11:56:18.605Z,95329.58
2022-08-20T12:00:06.524Z,95324.98
2022-08-20T12:03:53.966Z,95326.18
2022-08-20T12:07:50.197Z,95327.80
2022-08-20T12:11:37.650Z,95332.02
2022-08-20T12:15:25.093Z,95330.27
2022-08-20T12:19:12.306Z,95331.55
2022-08-20T12:22:59.517Z,95332.85
2022-08-20T12:26:47.208Z,95336.29
2022-08-20T12:30:34.664Z,95338.52
2022-08-20T12:34:21.815Z,95330.59
2022-08-20T12:38:09.291Z,95324.35
2022-08-20T12:41:56.727Z,95333.23
2022-08-20T12:45:44.352Z,95342.52
2022-08-20T12:49:31.902Z,95351.64
2022-08-20T12:53:19.378Z,95364.36
2022-08-20T12:57:08.040Z,95368.75
2022-08-20T13:00:58.462Z,95370.91
2022-08-20T13:04:45.660Z,95371.12
2022-08-20T13:08:13.489Z,95363.09
2022-08-20T13:12:00.482Z,95366.27
2022-08-20T13:15:29.745Z,95372.09
2022-08-20T13:19:16.645Z,95374.50
2022-08-20T13:23:05.480Z,95367.12
2022-08-20T13:26:52.675Z,95367.84
2022-08-20T13:30:26.287Z,95381.27
2022-08-20T13:34:13.149Z,95387.48
2022-08-20T13:38:00.654Z,95388.61
2022-08-20T13:41:47.861Z,95395.52
2022-08-20T13:45:01.461Z,95430.05
2022-08-20T13:48:14.801Z,95440.70
2022-08-20T13:50:47.378Z,95445.09
2022-08-20T13:53:55.286Z,95450.96
2022-08-20T13:56:37.781Z,95455.77
2022-08-20T14:00:31.226Z,95462.66
2022-08-20T14:04:19.739Z,95470.39
2022-08-20T14:08:19.155Z,95477.62
2022-08-20T14:12:12.372Z,95486.36
2022-08-20T14:16:04.629Z,95486.05
2022-08-20T14:19:52.557Z,95489.67
2022-08-20T14:23:40.076Z,95494.73
2022-08-20T14:27:31.101Z,95501.30
2022-08-20T14:31:18.997Z,95500.73
2022-08-20T14:35:06.141Z,95502.17
2022-08-20T14:38:53.855Z,95496.89
2022-08-20T14:42:41.263Z,95492.63
2022-08-20T14:46:30.813Z,95496.56
2022-08-20T14:50:18.344Z,95496.75
2022-08-20T14:54:05.617Z,95487.04
2022-08-20T14:57:53.135Z,95485.04
2022-08-20T15:01:40.636Z,95484.19
2022-08-20T15:05:28.137Z,95489.37
2022-08-20T15:09:17.112Z,95496.38
2022-08-20T15:13:04.690Z,95500.23
2022-08-20T15:16:52.246Z,95507.27
2022-08-20T15:20:39.706Z,95509.80
2022-08-20T15:24:27.225Z,95511.68
2022-08-20T15:28:20.864Z,95514.79
2022-08-20T15:32:11.357Z,95508.02
2022-08-20T15:35:58.611Z,95509.73
2022-08-20T15:39:46.416Z,95511.46
2022-08-20T15:43:33.910Z,95514.52
2022-08-20T15:47:21.427Z,95506.10
2022-08-20T15:51:14.992Z,95491.83
2022-08-20T15:55:02.608Z,95484.75
2022-08-20T15:58:59.163Z,95482.55
2022-08-20T16:03:01.638Z,95475.56
2022-08-20T16:07:01.216Z,95468.02
2022-08-20T16:10:48.682Z,95454.30
2022-08-20T16:14:39.226Z,95443.73
2022-08-20T16:18:32.943Z,95447.41
2022-08-20T16:22:20.171Z,95441.56
2022-08-20T16:26:07.838Z,95437.61
2022-08-20T16:30:20.753Z,95433.04
2022-08-20T16:34:33.377Z,95425.38
2022-08-20T16:38:26.987Z,95424.54
2022-08-20T16:42:17.435Z,95425.55
2022-08-20T16:46:05.058Z,95422.71
2022-08-20T16:49:55.703Z,95445.26
2022-08-20T16:53:43.355Z,95471.73
2022-08-20T16:57:30.894Z,95489.25
2022-08-20T17:01:24.184Z,95502.92
2022-08-20T17:05:23.657Z,95509.64
2022-08-20T17:09:11.309Z,95508.78
2022-08-20T17:13:00.191Z,95512.63
2022-08-20T17:16:53.948Z,95517.17
2022-08-20T17:20:41.405Z,95525.38
2022-08-20T17:24:34.677Z,95531.41
2022-08-20T17:28:35.177Z,95528.83
2022-08-20T17:32:34.899Z,95528.82
2022-08-20T17:36:22.433Z,95532.62
2022-08-20T17:40:09.986Z,95537.94
2022-08-20T17:44:03.118Z,95544.30
2022-08-20T17:47:50.624Z,95547.65
2022-08-20T17:51:38.173Z,95546.83
2022-08-20T17:55:28.788Z,95549.52
2022-08-20T17:59:20.841Z,95547.66
2022-08-20T18:03:21.259Z,95541.44
2022-08-20T18:07:11.437Z,95542.17
2022-08-20T18:11:07.981Z,95545.70
2022-08-20T18:15:04.359Z,95552.64
2022-08-20T18:19:22.316Z,95554.55
2022-08-20T18:23:09.828Z,95558.46
2022-08-20T18:27:08.958Z,95559.27
2022-08-20T18:30:57.155Z,95561.63
2022-08-20T18:34:53.548Z,95560.73
2022-08-20T18:38:56.062Z,95566.50
2022-08-20T18:43:01.867Z,95564.23
2022-08-20T18:46:49.437Z,95557.10
2022-08-20T18:50:39.531Z,95546.17
2022-08-20T18:54:29.516Z,95544.11
2022-08-20T18:58:16.995Z,95538.02
2022-08-20T19:02:04.572Z,95539.56
2022-08-20T19:05:55.182Z,95531.98
2022-08-20T19:09:54.578Z,95523.91
2022-08-20T19:13:47.725Z,95518.44
2022-08-20T19:17:44.312Z,95515.70
2022-08-20T19:21:37.194Z,95509.28
2022-08-20T19:25:28.013Z,95506.60
2022-08-20T19:29:21.508Z,95508.70
2022-08-20T19:33:08.998Z,95507.26
2022-08-20T19:36:56.494Z,95498.13
2022-08-20T19:40:46.279Z,95498.05
2022-08-20T19:44:33.896Z,95503.80
2022-08-20T19:48:27.203Z,95502.69
2022-08-20T19:52:18.181Z,95503.34
2022-08-20T19:56:05.673Z,95501.94
2022-08-20T19:59:59.290Z,95498.13
2022-08-20T20:03:49.316Z,95501.13
2022-08-20T20:07:36.763Z,95499.64
2022-08-20T20:11:24.248Z,95494.04
2022-08-20T20:15:11.689Z,95490.77
2022-08-20T20:19:24.802Z,95490.32
2022-08-20T20:23:07.238Z,95484.33
2022-08-20T20:27:01.167Z,95481.52
2022-08-20T20:30:48.769Z,95474.01
2022-08-20T20:34:55.058Z,95468.97
2022-08-20T20:38:43.389Z,95468.00
2022-08-20T20:42:30.902Z,95465.94
2022-08-20T20:46:18.097Z,95467.46
2022-08-20T20:50:20.628Z,95466.02
2022-08-20T20:54:13.946Z,95469.00
2022-08-20T20:58:04.568Z,95478.77
2022-08-20T21:01:52.093Z,95481.50
2022-08-20T21:05:39.668Z,95483.83
2022-08-20T21:09:27.208Z,95489.58
2022-08-20T21:13:14.704Z,95491.48
2022-08-20T21:17:02.184Z,95491.33
2022-08-20T21:20:51.741Z,95489.23
2022-08-20T21:24:39.221Z,95485.70
2022-08-20T21:28:28.401Z,95482.21
2022-08-20T21:32:15.491Z,95481.55
2022-08-20T21:36:02.747Z,95484.83
2022-08-20T21:39:50.273Z,95483.02
2022-08-20T21:43:37.932Z,95483.83
2022-08-20T21:47:25.564Z,95483.95
2022-08-20T21:51:12.462Z,95479.06
2022-08-20T21:54:59.604Z,95475.18
2022-08-20T21:58:47.110Z,95466.02
2022-08-20T22:02:34.287Z,95468.02
2022-08-20T22:06:21.862Z,95467.05
2022-08-20T22:10:09.308Z,95463.54
2022-08-20T22:13:56.612Z,95463.00
2022-08-20T22:17:44.145Z,95461.35
2022-08-20T22:21:31.473Z,95457.25
2022-08-20T22:25:18.979Z,95456.69
2022-08-20T22:29:06.151Z,95454.61
2022-08-20T22:32:53.618Z,95449.80
2022-08-20T22:36:47.056Z,95443.17
2022-08-20T22:40:34.545Z,95440.21
2022-08-20T22:44:22.040Z,95442.53
2022-08-20T22:48:09.316Z,95444.30
2022-08-20T22:51:56.660Z,95442.90
2022-08-20T22:55:44.431Z,95430.27
2022-08-20T22:59:33.077Z,95422.56
2022-08-20T23:03:39.215Z,95421.30
2022-08-20T23:07:27.869Z,95417.01
2022-08-20T23:11:15.304Z,95416.63
2022-08-20T23:15:02.898Z,95418.27
2022-08-20T23:18:50.408Z,95416.98
2022-08-20T23:22:37.927Z,95419.05
2022-08-20T23:26:25.399Z,95416.41
2022-08-20T23:30:12.972Z,95419.02
2022-08-20T23:34:00.497Z,95425.60
2022-08-20T23:37:47.989Z,95424.48
2022-08-20T23:41:35.183Z,95418.91
2022-08-20T23:45:22.391Z,95416.75
2022-08-20T23:49:09.892Z,95416.31
2022-08-20T23:52:57.717Z,95416.04
2022-08-20T23:56:44.816Z,95424.55
